Latest Weather Observations for Witchcliffe

IDW60801

Issued at 3:05 pm WST Saturday 26 July 2014 (issued every 30 minutes, with the page automatically refreshed every 10 minutes)

About weather observations | Map of weather stations | Latest weather observations for WA | Other Formats
Station Details ID: 009746 Name: WITCHCLIFFE Lat: -34.03 Lon: 115.10 Height: 80.0 m
Data from the previous 72 hours. | See also: Recent months at Witchcliffe
Date/Time
WST
Temp
°C
App
Temp
°C
Dew
Point
Rel
Hum
%
Delta-T
°C
Wind Press
QNH
hPa
Press
MSL
hPa
Rain
since 9 am
mm
Dir
 
Spd
km/h
Gust
km/h
Spd
kts
Gust
kts
26/03:00pm 15.1 10.8 7.2 59 3.9 W 19 33 10 18 1013.8 1013.9 1.8
26/02:30pm 15.3 10.0 6.8 57 4.2 W 24 37 13 20 1013.6 - 1.8
26/02:00pm 14.7 9.9 7.3 61 3.7 W 22 35 12 19 1013.7 - 1.8
26/01:30pm 14.7 10.4 7.7 63 3.5 W 20 35 11 19 1013.5 - 1.8
26/01:00pm 14.0 9.7 8.0 67 3.0 WSW 20 32 11 17 1013.5 - 1.8
26/12:30pm 14.7 10.4 7.7 63 3.5 W 20 37 11 20 1013.6 - 1.8
26/12:00pm 13.4 8.9 8.7 73 2.4 WSW 22 41 12 22 1013.7 1013.8 1.8
26/11:30am 12.9 9.7 11.1 89 0.9 W 19 33 10 18 1014.0 - 1.8
26/11:00am 13.5 10.8 10.3 81 1.7 W 15 22 8 12 1013.2 - 1.6
26/10:30am 13.4 10.3 10.2 81 1.7 W 17 32 9 17 1013.0 - 0.8
26/10:00am 12.6 9.3 11.5 93 0.6 WSW 20 48 11 26 1012.8 - 0.8
26/09:30am 13.2 11.7 13.0 99 0.1 W 13 24 7 13 1012.3 - 0.6
26/09:00am 13.3 11.4 13.1 99 0.1 WNW 15 26 8 14 1011.6 1011.7 30.0
26/08:30am 12.8 10.8 12.6 99 0.1 W 15 22 8 12 1011.4 - 29.4
26/08:00am 12.8 9.1 12.6 99 0.1 W 24 44 13 24 1011.3 - 28.4
26/07:30am 13.8 11.1 13.6 99 0.1 W 20 41 11 22 1010.4 - 24.6
26/07:00am 14.3 14.0 14.3 100 0.0 NW 9 17 5 9 1009.6 - 21.2
26/06:30am 14.2 11.9 14.0 99 0.1 W 19 28 10 15 1009.3 - 21.0
26/06:00am 14.9 13.3 14.9 100 0.0 WNW 17 32 9 17 1009.0 1009.2 19.8
26/05:30am 14.9 11.1 14.7 99 0.1 NW 28 48 15 26 1008.9 - 18.4
26/05:22am 14.8 11.0 14.8 100 0.0 NW 28 54 15 29 1009.0 - 17.4
26/05:00am 14.7 11.6 14.5 99 0.1 NW 24 43 13 23 1009.1 - 14.6
26/04:30am 14.1 10.8 13.9 99 0.1 NW 24 43 13 23 1009.2 - 9.0
26/04:00am 14.8 9.1 11.8 82 1.6 W 33 70 18 38 1009.9 - 3.8
26/03:59am 15.2 9.7 11.8 80 1.8 W 32 70 17 38 1009.7 - 3.2
26/03:30am 16.7 12.1 13.4 81 1.9 NNW 30 48 16 26 1009.1 - 2.8
26/03:27am 16.7 12.1 13.4 81 1.9 NNW 30 48 16 26 1009.1 - 2.8
26/03:00am 16.0 12.3 13.8 87 1.2 NNW 26 39 14 21 1009.6 1009.8 2.8
26/02:30am 15.6 11.4 13.4 87 1.2 NNW 28 44 15 24 1009.8 - 2.8
26/02:04am 15.9 11.8 13.9 88 1.1 NNW 28 54 15 29 1010.5 - 2.8
26/02:00am 16.6 12.5 13.7 83 1.6 NNW 28 41 15 22 1010.3 - 2.6
26/01:30am 16.6 12.3 13.3 81 1.9 NNW 28 43 15 23 1010.3 - 2.0
26/01:00am 16.5 11.4 13.0 80 2.0 NNW 32 50 17 27 1010.6 - 2.0
26/12:36am 16.5 12.3 13.6 83 1.6 NNW 28 48 15 26 1010.8 - 2.0
26/12:30am 16.4 12.6 13.5 83 1.6 NNW 26 43 14 23 1010.9 - 2.0
26/12:00am 16.2 11.7 13.9 86 1.3 NNW 30 44 16 24 1011.1 1011.2 2.0
 
Date/Time
WST
Temp
°C
App
Temp
°C
Dew
Point
Rel
Hum
%
Delta-T
°C
Wind Press
QNH
hPa
Press
MSL
hPa
Rain
since 9 am
mm
Dir
 
Spd
km/h
Gust
km/h
Spd
kts
Gust
kts
25/11:30pm 15.4 11.1 14.3 93 0.6 NNW 30 44 16 24 1011.6 - 2.0
25/11:01pm 15.5 10.7 13.9 90 0.9 NNW 32 50 17 27 1012.0 - 2.0
25/11:00pm 15.5 10.5 13.9 90 0.9 NNW 33 50 18 27 1012.0 - 2.0
25/10:30pm 15.0 10.3 14.2 95 0.5 NNW 32 57 17 31 1012.4 - 2.0
25/10:00pm 16.6 11.0 11.5 72 2.8 NNW 32 52 17 28 1012.2 - 0.4
25/09:30pm 17.3 11.6 11.1 67 3.4 NNW 32 61 17 33 1012.1 - 0.4
25/09:13pm 16.9 11.6 12.4 75 2.5 NNW 32 50 17 27 1012.5 - 0.4
25/09:00pm 16.8 11.9 12.7 77 2.3 N 30 44 16 24 1012.4 1012.5 0.4
25/08:30pm 16.3 10.9 12.7 79 2.0 N 33 46 18 25 1012.5 - 0.4
25/08:00pm 17.1 11.5 12.0 72 2.8 N 33 57 18 31 1012.5 - 0.4
25/07:40pm 17.1 11.9 11.6 70 3.0 NNW 30 52 16 28 1012.5 - 0.4
25/07:30pm 17.1 11.4 11.2 68 3.2 N 32 46 17 25 1012.6 - 0.4
25/07:00pm 17.3 11.5 10.7 65 3.5 NNW 32 50 17 27 1012.6 - 0.4
25/06:36pm 17.2 12.1 10.6 65 3.5 NNW 28 46 15 25 1012.8 - 0.4
25/06:30pm 17.2 11.3 10.3 64 3.7 NNW 32 44 17 24 1012.9 - 0.4
25/06:00pm 16.6 11.2 10.9 69 3.1 NNW 30 48 16 26 1012.7 1012.8 0.4
25/05:30pm 16.8 11.6 10.4 66 3.4 NNW 28 46 15 25 1012.8 - 0.4
25/05:00pm 17.0 11.5 10.4 65 3.5 NNW 30 54 16 29 1013.0 - 0.4
25/04:39pm 17.2 11.8 10.8 66 3.4 NNW 30 48 16 26 1013.1 - 0.4
25/04:30pm 17.1 12.4 12.0 72 2.8 N 28 41 15 22 1013.2 - 0.4
25/04:00pm 16.2 11.5 13.1 82 1.7 N 30 48 16 26 1013.3 - 0.2
25/03:43pm 16.8 11.3 12.5 76 2.4 N 33 52 18 28 1013.6 - 0.2
25/03:30pm 17.5 10.7 12.0 70 3.0 N 39 50 21 27 1013.5 - 0.2
25/03:00pm 18.2 11.8 10.8 62 4.0 NNW 35 54 19 29 1013.5 1013.6 0.2
25/02:40pm 18.4 12.8 10.0 58 4.5 NNW 30 57 16 31 1013.5 - 0.2
25/02:30pm 18.5 12.4 9.8 57 4.6 NNW 32 44 17 24 1013.5 - 0.2
25/02:00pm 18.3 12.0 9.6 57 4.6 NNW 33 54 18 29 1013.5 - 0.2
25/01:32pm 18.2 11.6 10.1 59 4.3 NNW 35 54 19 29 1013.9 - 0.2
25/01:30pm 18.3 11.8 10.4 60 4.2 NNW 35 52 19 28 1014.1 - 0.2
25/01:00pm 18.2 11.1 9.5 57 4.6 NNW 37 57 20 31 1014.5 - 0.2
25/12:31pm 18.0 12.5 11.8 67 3.4 N 32 50 17 27 1015.0 - 0.2
25/12:30pm 17.8 12.0 11.6 67 3.4 N 33 50 18 27 1014.9 - 0.2
25/12:00pm 17.1 11.4 11.2 68 3.2 NNW 32 52 17 28 1015.6 1015.8 0.2
25/11:54am 17.1 11.4 11.2 68 3.2 NNW 32 50 17 27 1015.6 - 0.2
25/11:30am 16.3 12.0 12.1 76 2.3 N 26 39 14 21 1016.0 - 0.2
25/11:00am 17.6 12.5 10.5 63 3.8 NNW 28 50 15 27 1016.3 - 0.2
25/10:32am 17.9 13.0 11.2 65 3.6 NNW 28 48 15 26 1016.4 - 0.2
25/10:30am 18.0 13.6 11.8 67 3.4 NNW 26 44 14 24 1016.5 - 0.2
25/10:00am 16.6 11.9 11.9 74 2.6 NNW 28 48 15 26 1016.6 - 0.2
25/09:30am 15.9 11.6 10.9 72 2.7 NNW 24 33 13 18 1016.7 - 0.2
25/09:00am 14.8 9.5 12.5 86 1.3 NNW 32 57 17 31 1016.9 1017.1 10.4
25/08:58am 15.1 10.4 12.1 82 1.6 NNW 28 52 15 28 1016.7 - 10.4
25/08:30am 16.1 12.6 10.8 71 2.8 NNW 20 28 11 15 1016.5 - 10.4
25/08:00am 15.7 11.0 9.4 66 3.3 NNW 24 37 13 20 1016.5 - 10.4
25/07:30am 15.3 11.2 10.1 71 2.7 NNW 22 35 12 19 1016.5 - 10.4
25/07:00am 15.7 11.7 10.5 71 2.8 NNW 22 33 12 18 1016.3 - 10.4
25/06:30am 15.3 12.2 11.5 78 2.1 NNW 19 24 10 13 1016.3 - 10.2
25/06:00am 15.2 12.1 10.4 73 2.5 NNW 17 26 9 14 1016.3 1016.5 10.2
25/05:30am 15.2 12.0 12.0 81 1.7 NW 20 32 11 17 1016.4 - 10.2
25/05:00am 14.9 12.2 10.5 75 2.3 NNW 15 24 8 13 1016.3 - 10.2
25/04:30am 14.8 13.2 12.8 88 1.1 NNW 13 28 7 15 1016.4 - 10.2
25/04:00am 14.3 12.4 12.9 91 0.8 NNW 15 22 8 12 1016.7 - 10.2
25/03:30am 14.3 11.9 11.3 82 1.6 NNW 15 19 8 10 1017.0 - 10.2
25/03:00am 14.2 11.4 14.2 100 0.0 NNW 22 32 12 17 1017.3 1017.5 10.2
25/02:30am 13.2 12.1 13.2 100 0.0 N 11 15 6 8 1017.5 - 10.2
25/02:00am 12.8 12.0 12.8 100 0.0 N 9 11 5 6 1017.6 - 10.2
25/01:30am 13.0 13.6 13.0 100 0.0 N 2 9 1 5 1017.6 - 10.2
25/01:00am 13.3 14.3 13.3 100 0.0 CALM 0 0 0 0 1017.8 - 10.2
25/12:30am 13.4 13.3 13.4 100 0.0 N 6 11 3 6 1018.1 - 9.8
25/12:00am 13.2 14.2 13.2 100 0.0 CALM 0 0 0 0 1018.4 1018.6 7.6
 
Date/Time
WST
Temp
°C
App
Temp
°C
Dew
Point
Rel
Hum
%
Delta-T
°C
Wind Press
QNH
hPa
Press
MSL
hPa
Rain
since 9 am
mm
Dir
 
Spd
km/h
Gust
km/h
Spd
kts
Gust
kts
24/11:30pm 13.4 12.8 13.4 100 0.0 N 9 11 5 6 1018.9 - 7.2
24/11:00pm 13.3 12.6 13.3 100 0.0 NNW 9 15 5 8 1019.1 - 5.0
24/10:30pm 13.2 11.4 13.2 100 0.0 N 15 22 8 12 1019.1 - 4.8
24/10:00pm 12.9 12.1 12.9 100 0.0 N 9 13 5 7 1019.1 - 2.2
24/09:30pm 11.2 9.9 11.2 100 0.0 N 9 13 5 7 1019.2 - 0.6
24/09:00pm 11.7 10.9 11.7 100 0.0 N 7 9 4 5 1019.3 1019.5 0.6
24/08:30pm 11.4 10.7 11.4 100 0.0 N 6 7 3 4 1019.3 - 0.6
24/08:00pm 12.0 11.3 12.0 100 0.0 N 7 9 4 5 1019.5 - 0.6
24/07:30pm 12.5 11.6 12.5 100 0.0 N 9 13 5 7 1019.6 - 0.6
24/07:00pm 11.8 11.5 11.6 99 0.1 NNE 4 9 2 5 1019.5 - 0.4
24/06:30pm 12.1 12.7 11.9 99 0.1 CALM 0 0 0 0 1019.5 - 0.4
24/06:00pm 12.7 13.5 12.5 99 0.1 CALM 0 0 0 0 1019.5 1019.7 0.4
24/05:30pm 13.3 12.9 12.4 94 0.5 NNE 6 7 3 4 1019.4 - 0.4
24/05:00pm 14.4 14.0 12.4 88 1.1 N 6 7 3 4 1019.4 - 0.4
24/04:30pm 14.3 13.6 13.3 94 0.6 NNW 9 15 5 8 1019.3 - 0.4
24/04:00pm 15.1 13.7 12.2 83 1.6 NW 11 15 6 8 1019.2 - 0.0
24/03:30pm 15.0 12.4 12.1 83 1.6 NNW 17 24 9 13 1019.2 - 0.0
24/03:00pm 16.2 14.2 10.3 68 3.1 WNW 11 17 6 9 1019.1 1019.3 0.0
24/02:30pm 16.6 14.3 10.5 67 3.3 WNW 13 19 7 10 1019.3 - 0.0
24/02:00pm 16.3 13.6 10.2 67 3.2 WNW 15 20 8 11 1019.4 - 0.0
24/01:30pm 16.4 13.9 9.8 65 3.5 W 13 24 7 13 1019.5 - 0.0
24/01:00pm 16.2 13.2 9.4 64 3.5 W 15 26 8 14 1020.0 - 0.0
24/12:30pm 16.1 13.1 9.3 64 3.5 W 15 22 8 12 1020.4 - 0.0
24/12:00pm 15.9 13.1 8.6 62 3.7 W 13 20 7 11 1020.8 1021.0 0.0
24/11:30am 15.7 12.9 8.4 62 3.7 W 13 20 7 11 1021.2 - 0.0
24/11:00am 15.2 11.8 7.7 61 3.7 W 15 24 8 13 1021.3 - 0.0
24/10:30am 15.1 11.9 6.9 58 4.0 W 13 22 7 12 1021.3 - 0.0
24/10:00am 14.9 12.4 8.2 64 3.4 W 11 19 6 10 1021.3 - 0.0
24/09:30am 14.3 11.8 8.0 66 3.1 W 11 17 6 9 1021.2 - 0.0
24/09:00am 12.5 12.9 11.1 91 0.7 CALM 0 0 0 0 1020.8 1021.0 1.6
24/08:30am 9.8 9.8 9.7 99 0.1 CALM 0 0 0 0 1020.6 - 1.6
24/08:00am 8.4 8.0 8.3 99 0.0 CALM 0 0 0 0 1020.3 - 1.6
24/07:30am 7.9 7.3 7.6 98 0.1 CALM 0 0 0 0 1020.2 - 1.6
24/07:00am 9.1 8.8 8.6 97 0.2 CALM 0 0 0 0 1020.0 - 1.6
24/06:30am 9.4 9.1 8.8 96 0.3 CALM 0 0 0 0 1019.9 - 1.6
24/06:00am 9.3 8.9 8.1 92 0.6 CALM 0 0 0 0 1019.6 1019.8 1.6
24/05:30am 8.8 8.1 6.9 88 0.9 CALM 0 0 0 0 1019.5 - 1.6
24/05:00am 9.0 8.2 6.6 85 1.1 CALM 0 0 0 0 1019.4 - 1.6
24/04:30am 10.5 9.6 5.9 73 2.1 CALM 0 0 0 0 1019.4 - 1.6
24/04:00am 10.7 9.5 6.3 74 2.1 SSW 2 7 1 4 1019.4 - 1.6
24/03:30am 10.8 10.0 6.6 75 2.0 CALM 0 0 0 0 1019.2 - 1.6
24/03:00am 12.5 10.1 7.2 70 2.6 SW 9 15 5 8 1019.2 1019.4 1.6
24/02:30am 12.3 9.6 7.4 72 2.4 SW 11 15 6 8 1019.1 - 1.6
24/02:00am 12.6 9.5 7.3 70 2.6 WSW 13 24 7 13 1019.0 - 1.6
24/01:30am 12.6 9.6 7.9 73 2.3 WSW 13 17 7 9 1018.8 - 1.6
24/01:00am 13.2 10.1 8.7 74 2.3 WSW 15 20 8 11 1018.6 - 1.6
24/12:30am 13.5 11.0 9.6 77 2.0 SW 13 17 7 9 1018.6 - 1.6
24/12:00am 13.9 12.3 11.6 86 1.2 WSW 11 20 6 11 1018.7 1018.9 1.6
 
Date/Time
WST
Temp
°C
App
Temp
°C
Dew
Point
Rel
Hum
%
Delta-T
°C
Wind Press
QNH
hPa
Press
MSL
hPa
Rain
since 9 am
mm
Dir
 
Spd
km/h
Gust
km/h
Spd
kts
Gust
kts
23/11:30pm 14.2 12.8 12.2 88 1.1 WSW 11 19 6 10 1018.7 - 1.6
23/11:00pm 14.0 11.8 12.0 88 1.1 SW 15 20 8 11 1018.7 - 1.6
23/10:30pm 12.9 9.6 11.6 92 0.7 WSW 20 37 11 20 1018.8 - 1.6
23/10:00pm 14.4 11.4 12.6 89 1.0 W 20 37 11 20 1018.5 - 1.2
23/09:30pm 14.8 13.1 12.5 86 1.3 WNW 13 22 7 12 1018.4 - 0.4
23/09:00pm 14.1 13.2 12.7 91 0.8 NW 9 17 5 9 1018.5 1018.7 0.4
23/08:30pm 13.5 12.5 12.4 93 0.6 WNW 9 15 5 8 1018.7 - 0.4
23/08:00pm 13.4 10.7 11.8 90 0.9 WNW 17 28 9 15 1018.7 - 0.4
23/07:30pm 15.0 13.0 10.0 72 2.6 WNW 11 19 6 10 1018.4 - 0.2
23/07:00pm 15.0 11.9 8.7 66 3.2 W 15 22 8 12 1018.5 - 0.2
23/06:30pm 14.9 11.9 9.3 69 2.9 WNW 15 26 8 14 1018.4 - 0.2
23/06:00pm 14.8 12.4 10.0 73 2.5 WNW 13 20 7 11 1018.4 1018.6 0.2
23/05:30pm 14.6 12.3 9.0 69 2.9 WNW 11 15 6 8 1018.4 - 0.2
23/05:00pm 14.5 12.5 8.7 68 2.9 WNW 9 19 5 10 1018.3 - 0.2
23/04:30pm 14.5 11.8 8.9 69 2.9 WNW 13 24 7 13 1018.3 - 0.2
23/04:00pm 14.5 12.0 9.7 73 2.5 NNW 13 20 7 11 1018.0 - 0.2
23/03:30pm 14.6 11.6 9.2 70 2.8 NW 15 26 8 14 1018.2 - 0.2

Other Formats:

Comma delimited format used in spreadsheet applications
http://www.bom.gov.au/fwo/IDW60801/IDW60801.95641.axf

JavaScript Object Notation format (JSON) in row-major order
http://www.bom.gov.au/fwo/IDW60801/IDW60801.95641.json